sensor_id;sensor_type;location;lat;lon;timestamp;pressure;altitude;pressure_sealevel;temperature;humidity
25498;BME280;13406;53.380;7.226;2024-03-08T00:00:03;101954.03;;;2.80;100.00
25498;BME280;13406;53.380;7.226;2024-03-08T00:02:35;101882.25;;;2.26;100.00
25498;BME280;13406;53.380;7.226;2024-03-08T00:05:01;101900.09;;;2.47;100.00
25498;BME280;13406;53.380;7.226;2024-03-08T00:07:27;101936.44;;;2.79;100.00
25498;BME280;13406;53.380;7.226;2024-03-08T00:09:53;101926.94;;;2.65;100.00
25498;BME280;13406;53.380;7.226;2024-03-08T00:12:18;101806.06;;;1.96;100.00
25498;BME280;13406;53.380;7.226;2024-03-08T00:14:44;101922.94;;;2.59;100.00
25498;BME280;13406;53.380;7.226;2024-03-08T00:17:10;101862.66;;;2.18;100.00
25498;BME280;13406;53.380;7.226;2024-03-08T00:19:35;101883.34;;;2.46;100.00
25498;BME280;13406;53.380;7.226;2024-03-08T00:22:02;101830.03;;;2.17;100.00
25498;BME280;13406;53.380;7.226;2024-03-08T00:24:27;101815.47;;;2.00;100.00
25498;BME280;13406;53.380;7.226;2024-03-08T00:26:54;101881.66;;;2.45;100.00
25498;BME280;13406;53.380;7.226;2024-03-08T00:29:20;101862.41;;;2.32;100.00
25498;BME280;13406;53.380;7.226;2024-03-08T00:31:47;101890.94;;;2.51;100.00
25498;BME280;13406;53.380;7.226;2024-03-08T00:34:13;101821.72;;;1.88;100.00
25498;BME280;13406;53.380;7.226;2024-03-08T00:36:38;101863.59;;;2.28;100.00
25498;BME280;13406;53.380;7.226;2024-03-08T00:39:04;101835.69;;;2.13;100.00
25498;BME280;13406;53.380;7.226;2024-03-08T00:41:32;101872.63;;;2.37;100.00
25498;BME280;13406;53.380;7.226;2024-03-08T00:43:58;101841.72;;;2.15;100.00
25498;BME280;13406;53.380;7.226;2024-03-08T00:46:24;101761.19;;;1.72;100.00
25498;BME280;13406;53.380;7.226;2024-03-08T00:48:49;101849.50;;;2.16;100.00
25498;BME280;13406;53.380;7.226;2024-03-08T00:51:15;101843.53;;;2.14;100.00
25498;BME280;13406;53.380;7.226;2024-03-08T00:53:41;101800.91;;;1.84;100.00
25498;BME280;13406;53.380;7.226;2024-03-08T00:56:08;101807.63;;;1.99;100.00
25498;BME280;13406;53.380;7.226;2024-03-08T00:58:38;101836.53;;;2.24;100.00
25498;BME280;13406;53.380;7.226;2024-03-08T01:01:04;101855.88;;;2.14;100.00
25498;BME280;13406;53.380;7.226;2024-03-08T01:03:30;101831.59;;;2.20;100.00
25498;BME280;13406;53.380;7.226;2024-03-08T01:05:59;101791.06;;;1.97;100.00
25498;BME280;13406;53.380;7.226;2024-03-08T01:08:26;101818.59;;;2.17;100.00
25498;BME280;13406;53.380;7.226;2024-03-08T01:10:53;101761.69;;;1.77;100.00
25498;BME280;13406;53.380;7.226;2024-03-08T01:13:18;101792.97;;;2.06;100.00
25498;BME280;13406;53.380;7.226;2024-03-08T01:15:44;101805.25;;;2.18;100.00
25498;BME280;13406;53.380;7.226;2024-03-08T01:18:10;101736.91;;;1.90;100.00
25498;BME280;13406;53.380;7.226;2024-03-08T01:20:36;101776.72;;;2.11;100.00
25498;BME280;13406;53.380;7.226;2024-03-08T01:23:01;101683.06;;;1.57;100.00
25498;BME280;13406;53.380;7.226;2024-03-08T01:25:27;101745.09;;;1.87;100.00
25498;BME280;13406;53.380;7.226;2024-03-08T01:27:52;101775.28;;;2.18;100.00
25498;BME280;13406;53.380;7.226;2024-03-08T01:30:19;101708.31;;;1.84;100.00
25498;BME280;13406;53.380;7.226;2024-03-08T01:32:44;101753.03;;;2.09;100.00
25498;BME280;13406;53.380;7.226;2024-03-08T01:35:10;101699.28;;;1.75;100.00
25498;BME280;13406;53.380;7.226;2024-03-08T01:37:36;101721.63;;;1.93;100.00
25498;BME280;13406;53.380;7.226;2024-03-08T01:40:02;101683.31;;;1.65;100.00
25498;BME280;13406;53.380;7.226;2024-03-08T01:42:28;101634.13;;;1.29;100.00
25498;BME280;13406;53.380;7.226;2024-03-08T01:44:54;101634.22;;;1.39;100.00
25498;BME280;13406;53.380;7.226;2024-03-08T01:47:20;101693.41;;;1.60;100.00
25498;BME280;13406;53.380;7.226;2024-03-08T01:49:49;101717.44;;;1.79;100.00
25498;BME280;13406;53.380;7.226;2024-03-08T01:52:16;101620.19;;;1.27;100.00
25498;BME280;13406;53.380;7.226;2024-03-08T01:54:44;101697.81;;;1.82;100.00
25498;BME280;13406;53.380;7.226;2024-03-08T01:57:13;101512.75;;;0.47;100.00
25498;BME280;13406;53.380;7.226;2024-03-08T01:59:39;101695.31;;;1.80;100.00
25498;BME280;13406;53.380;7.226;2024-03-08T02:02:06;101690.16;;;1.56;100.00
25498;BME280;13406;53.380;7.226;2024-03-08T02:04:34;101592.88;;;1.04;100.00
25498;BME280;13406;53.380;7.226;2024-03-08T02:06:59;101689.06;;;1.81;100.00
25498;BME280;13406;53.380;7.226;2024-03-08T02:09:25;101547.09;;;0.81;100.00
25498;BME280;13406;53.380;7.226;2024-03-08T02:11:51;101679.09;;;1.74;100.00
25498;BME280;13406;53.380;7.226;2024-03-08T02:14:17;101690.88;;;1.70;100.00
25498;BME280;13406;53.380;7.226;2024-03-08T02:16:44;101670.28;;;1.73;100.00
25498;BME280;13406;53.380;7.226;2024-03-08T02:19:09;101672.09;;;1.73;100.00
25498;BME280;13406;53.380;7.226;2024-03-08T02:21:35;101632.56;;;1.49;100.00
25498;BME280;13406;53.380;7.226;2024-03-08T02:24:02;101664.75;;;1.76;100.00
25498;BME280;13406;53.380;7.226;2024-03-08T02:26:28;101452.13;;;0.45;100.00
25498;BME280;13406;53.380;7.226;2024-03-08T02:28:54;101661.28;;;1.76;100.00
25498;BME280;13406;53.380;7.226;2024-03-08T02:31:19;101652.66;;;1.74;100.00
25498;BME280;13406;53.380;7.226;2024-03-08T02:33:45;101649.75;;;1.77;100.00
25498;BME280;13406;53.380;7.226;2024-03-08T02:36:13;101555.44;;;1.10;100.00
25498;BME280;13406;53.380;7.226;2024-03-08T02:38:39;101634.25;;;1.61;100.00
25498;BME280;13406;53.380;7.226;2024-03-08T02:41:09;101648.53;;;1.70;100.00
25498;BME280;13406;53.380;7.226;2024-03-08T02:43:38;101621.75;;;1.52;100.00
25498;BME280;13406;53.380;7.226;2024-03-08T02:46:03;101435.22;;;0.37;100.00
25498;BME280;13406;53.380;7.226;2024-03-08T02:48:30;101582.56;;;1.23;100.00
25498;BME280;13406;53.380;7.226;2024-03-08T02:51:05;101612.75;;;1.43;100.00
25498;BME280;13406;53.380;7.226;2024-03-08T02:53:30;101519.88;;;0.80;100.00
25498;BME280;13406;53.380;7.226;2024-03-08T02:55:56;101628.25;;;1.37;100.00
25498;BME280;13406;53.380;7.226;2024-03-08T02:58:24;101479.13;;;0.49;100.00
25498;BME280;13406;53.380;7.226;2024-03-08T03:00:49;101587.13;;;1.21;100.00
25498;BME280;13406;53.380;7.226;2024-03-08T03:03:22;101614.31;;;1.46;100.00
25498;BME280;13406;53.380;7.226;2024-03-08T03:05:48;101608.19;;;1.56;100.00
25498;BME280;13406;53.380;7.226;2024-03-08T03:08:15;101606.03;;;1.39;100.00
25498;BME280;13406;53.380;7.226;2024-03-08T03:10:49;101603.72;;;1.46;100.00
25498;BME280;13406;53.380;7.226;2024-03-08T03:13:15;101507.50;;;0.81;100.00
25498;BME280;13406;53.380;7.226;2024-03-08T03:15:40;101619.94;;;1.52;100.00
25498;BME280;13406;53.380;7.226;2024-03-08T03:18:07;101601.44;;;1.52;100.00
25498;BME280;13406;53.380;7.226;2024-03-08T03:20:36;101533.94;;;1.15;100.00
25498;BME280;13406;53.380;7.226;2024-03-08T03:23:06;101586.06;;;1.46;100.00
25498;BME280;13406;53.380;7.226;2024-03-08T03:25:36;101498.66;;;1.04;100.00
25498;BME280;13406;53.380;7.226;2024-03-08T03:28:07;101543.78;;;1.24;100.00
25498;BME280;13406;53.380;7.226;2024-03-08T03:30:33;101516.41;;;1.13;100.00
25498;BME280;13406;53.380;7.226;2024-03-08T03:33:02;101584.84;;;1.62;100.00
25498;BME280;13406;53.380;7.226;2024-03-08T03:35:32;101567.53;;;1.57;100.00
25498;BME280;13406;53.380;7.226;2024-03-08T03:38:00;101549.28;;;1.43;100.00
25498;BME280;13406;53.380;7.226;2024-03-08T03:40:34;101545.41;;;1.58;100.00
25498;BME280;13406;53.380;7.226;2024-03-08T03:43:01;101525.91;;;1.27;100.00
25498;BME280;13406;53.380;7.226;2024-03-08T03:45:27;101574.50;;;1.58;100.00
25498;BME280;13406;53.380;7.226;2024-03-08T03:47:52;101566.00;;;1.44;100.00
25498;BME280;13406;53.380;7.226;2024-03-08T03:50:19;101544.25;;;1.18;100.00
25498;BME280;13406;53.380;7.226;2024-03-08T03:52:47;101577.97;;;1.59;100.00
25498;BME280;13406;53.380;7.226;2024-03-08T03:55:16;101492.72;;;1.01;100.00
25498;BME280;13406;53.380;7.226;2024-03-08T03:57:42;101593.75;;;1.38;100.00
25498;BME280;13406;53.380;7.226;2024-03-08T04:00:11;101581.38;;;1.39;100.00
25498;BME280;13406;53.380;7.226;2024-03-08T04:02:40;101569.38;;;1.46;100.00
25498;BME280;13406;53.380;7.226;2024-03-08T04:05:09;101572.72;;;1.48;100.00
25498;BME280;13406;53.380;7.226;2024-03-08T04:07:36;101574.66;;;1.34;100.00
25498;BME280;13406;53.380;7.226;2024-03-08T04:10:11;101485.91;;;0.76;100.00
25498;BME280;13406;53.380;7.226;2024-03-08T04:12:37;101543.53;;;0.93;100.00
25498;BME280;13406;53.380;7.226;2024-03-08T04:15:04;101485.66;;;0.67;100.00
25498;BME280;13406;53.380;7.226;2024-03-08T04:17:33;101534.75;;;1.04;100.00
25498;BME280;13406;53.380;7.226;2024-03-08T04:20:05;101490.81;;;0.69;100.00
25498;BME280;13406;53.380;7.226;2024-03-08T04:22:40;101489.25;;;0.78;100.00
25498;BME280;13406;53.380;7.226;2024-03-08T04:25:06;101457.56;;;0.66;100.00
25498;BME280;13406;53.380;7.226;2024-03-08T04:27:35;101557.97;;;1.23;100.00
25498;BME280;13406;53.380;7.226;2024-03-08T04:30:02;101561.09;;;1.28;100.00
25498;BME280;13406;53.380;7.226;2024-03-08T04:32:27;101557.38;;;1.08;100.00
25498;BME280;13406;53.380;7.226;2024-03-08T04:34:55;101558.78;;;1.12;100.00
25498;BME280;13406;53.380;7.226;2024-03-08T04:37:21;101443.00;;;0.27;100.00
25498;BME280;13406;53.380;7.226;2024-03-08T04:39:47;101559.63;;;1.01;100.00
25498;BME280;13406;53.380;7.226;2024-03-08T04:42:13;101499.34;;;0.73;100.00
25498;BME280;13406;53.380;7.226;2024-03-08T04:44:39;101423.22;;;0.21;100.00
25498;BME280;13406;53.380;7.226;2024-03-08T04:47:05;101362.59;;;-0.14;100.00
25498;BME280;13406;53.380;7.226;2024-03-08T04:49:32;101564.66;;;1.16;100.00
25498;BME280;13406;53.380;7.226;2024-03-08T04:52:01;101559.88;;;1.09;100.00
25498;BME280;13406;53.380;7.226;2024-03-08T04:54:27;101524.56;;;0.88;100.00
25498;BME280;13406;53.380;7.226;2024-03-08T04:56:57;101535.72;;;1.03;100.00
25498;BME280;13406;53.380;7.226;2024-03-08T04:59:22;101482.78;;;0.71;100.00
25498;BME280;13406;53.380;7.226;2024-03-08T05:01:49;101574.88;;;1.09;100.00
25498;BME280;13406;53.380;7.226;2024-03-08T05:04:14;101535.97;;;1.00;100.00
25498;BME280;13406;53.380;7.226;2024-03-08T05:06:40;101513.88;;;0.78;100.00
25498;BME280;13406;53.380;7.226;2024-03-08T05:09:08;101492.84;;;0.65;100.00
25498;BME280;13406;53.380;7.226;2024-03-08T05:11:45;101508.34;;;0.70;100.00
25498;BME280;13406;53.380;7.226;2024-03-08T05:14:16;101479.75;;;0.53;100.00
25498;BME280;13406;53.380;7.226;2024-03-08T05:16:46;101532.72;;;0.85;100.00
25498;BME280;13406;53.380;7.226;2024-03-08T05:19:18;101421.03;;;0.15;100.00
25498;BME280;13406;53.380;7.226;2024-03-08T05:21:48;101524.44;;;0.89;100.00
25498;BME280;13406;53.380;7.226;2024-03-08T05:24:21;101464.88;;;0.52;100.00
25498;BME280;13406;53.380;7.226;2024-03-08T05:26:55;101524.19;;;0.93;100.00
25498;BME280;13406;53.380;7.226;2024-03-08T05:29:20;101417.09;;;0.21;100.00
25498;BME280;13406;53.380;7.226;2024-03-08T05:31:50;101536.81;;;0.89;100.00
25498;BME280;13406;53.380;7.226;2024-03-08T05:34:26;101537.03;;;0.86;100.00
25498;BME280;13406;53.380;7.226;2024-03-08T05:37:06;101531.50;;;0.89;100.00
25498;BME280;13406;53.380;7.226;2024-03-08T05:39:32;101507.72;;;0.66;100.00
25498;BME280;13406;53.380;7.226;2024-03-08T05:41:58;101499.09;;;0.64;100.00
25498;BME280;13406;53.380;7.226;2024-03-08T05:44:24;101439.00;;;0.10;100.00
25498;BME280;13406;53.380;7.226;2024-03-08T05:46:49;101533.31;;;0.77;100.00
25498;BME280;13406;53.380;7.226;2024-03-08T05:49:15;101549.66;;;0.82;100.00
25498;BME280;13406;53.380;7.226;2024-03-08T05:51:47;101379.63;;;-0.07;100.00
25498;BME280;13406;53.380;7.226;2024-03-08T05:54:13;101530.34;;;0.93;100.00
25498;BME280;13406;53.380;7.226;2024-03-08T05:56:39;101522.75;;;0.88;100.00
25498;BME280;13406;53.380;7.226;2024-03-08T05:59:12;101520.84;;;0.79;100.00
25498;BME280;13406;53.380;7.226;2024-03-08T06:01:40;101523.72;;;0.87;100.00
25498;BME280;13406;53.380;7.226;2024-03-08T06:04:06;101487.22;;;0.70;100.00
25498;BME280;13406;53.380;7.226;2024-03-08T06:06:32;101429.59;;;0.41;100.00
25498;BME280;13406;53.380;7.226;2024-03-08T06:08:58;101523.13;;;0.95;100.00
25498;BME280;13406;53.380;7.226;2024-03-08T06:11:34;101400.75;;;0.05;100.00
25498;BME280;13406;53.380;7.226;2024-03-08T06:14:05;101450.81;;;0.40;100.00
25498;BME280;13406;53.380;7.226;2024-03-08T06:16:34;101486.13;;;0.50;100.00
25498;BME280;13406;53.380;7.226;2024-03-08T06:19:01;101504.50;;;0.74;100.00
25498;BME280;13406;53.380;7.226;2024-03-08T06:21:29;101476.50;;;0.60;100.00
25498;BME280;13406;53.380;7.226;2024-03-08T06:24:01;101511.44;;;0.75;100.00
25498;BME280;13406;53.380;7.226;2024-03-08T06:26:26;101365.22;;;-0.14;100.00
25498;BME280;13406;53.380;7.226;2024-03-08T06:28:55;101519.16;;;0.89;100.00
25498;BME280;13406;53.380;7.226;2024-03-08T06:31:21;101378.47;;;0.09;100.00
25498;BME280;13406;53.380;7.226;2024-03-08T06:33:47;101419.28;;;0.38;100.00
25498;BME280;13406;53.380;7.226;2024-03-08T06:36:18;101510.78;;;0.96;100.00
25498;BME280;13406;53.380;7.226;2024-03-08T06:38:45;101515.69;;;1.00;100.00
25498;BME280;13406;53.380;7.226;2024-03-08T06:41:11;101473.91;;;0.83;100.00
25498;BME280;13406;53.380;7.226;2024-03-08T06:43:46;101502.84;;;0.96;100.00
25498;BME280;13406;53.380;7.226;2024-03-08T06:46:23;101509.66;;;0.98;100.00
25498;BME280;13406;53.380;7.226;2024-03-08T06:48:52;101505.69;;;0.93;100.00
25498;BME280;13406;53.380;7.226;2024-03-08T06:51:18;101451.34;;;0.67;100.00
25498;BME280;13406;53.380;7.226;2024-03-08T06:53:44;101516.50;;;1.12;100.00
25498;BME280;13406;53.380;7.226;2024-03-08T06:56:12;101374.75;;;0.22;100.00
25498;BME280;13406;53.380;7.226;2024-03-08T06:58:38;101420.00;;;0.52;100.00
25498;BME280;13406;53.380;7.226;2024-03-08T07:01:13;101518.31;;;1.00;100.00
25498;BME280;13406;53.380;7.226;2024-03-08T07:03:41;101470.41;;;0.71;100.00
25498;BME280;13406;53.380;7.226;2024-03-08T07:06:10;101522.19;;;1.07;100.00
25498;BME280;13406;53.380;7.226;2024-03-08T07:08:39;101309.22;;;-0.40;100.00
25498;BME280;13406;53.380;7.226;2024-03-08T07:11:04;101521.56;;;1.26;100.00
25498;BME280;13406;53.380;7.226;2024-03-08T07:13:32;101521.06;;;1.21;100.00
25498;BME280;13406;53.380;7.226;2024-03-08T07:16:00;101523.94;;;1.29;100.00
25498;BME280;13406;53.380;7.226;2024-03-08T07:18:33;101525.66;;;1.30;100.00
25498;BME280;13406;53.380;7.226;2024-03-08T07:20:59;101400.69;;;0.51;100.00
25498;BME280;13406;53.380;7.226;2024-03-08T07:23:27;101539.31;;;1.47;100.00
25498;BME280;13406;53.380;7.226;2024-03-08T07:26:11;101478.53;;;1.35;100.00
25498;BME280;13406;53.380;7.226;2024-03-08T07:28:40;101479.72;;;1.43;100.00
25498;BME280;13406;53.380;7.226;2024-03-08T07:31:05;101459.81;;;1.27;100.00
25498;BME280;13406;53.380;7.226;2024-03-08T07:33:54;101500.47;;;1.58;100.00
25498;BME280;13406;53.380;7.226;2024-03-08T07:36:19;101470.81;;;1.44;100.00
25498;BME280;13406;53.380;7.226;2024-03-08T07:38:47;101430.69;;;1.39;100.00
25498;BME280;13406;53.380;7.226;2024-03-08T07:41:13;101409.53;;;1.39;100.00
25498;BME280;13406;53.380;7.226;2024-03-08T07:43:38;101469.78;;;1.99;100.00
25498;BME280;13406;53.380;7.226;2024-03-08T07:46:04;101448.38;;;1.70;100.00
25498;BME280;13406;53.380;7.226;2024-03-08T07:48:29;101415.94;;;1.68;100.00
25498;BME280;13406;53.380;7.226;2024-03-08T07:50:56;101449.38;;;1.90;100.00
25498;BME280;13406;53.380;7.226;2024-03-08T07:53:22;101340.16;;;1.25;100.00
25498;BME280;13406;53.380;7.226;2024-03-08T07:55:49;101459.34;;;1.98;100.00
25498;BME280;13406;53.380;7.226;2024-03-08T07:58:15;101418.41;;;1.81;100.00
25498;BME280;13406;53.380;7.226;2024-03-08T08:00:40;101420.63;;;1.97;100.00
25498;BME280;13406;53.380;7.226;2024-03-08T08:03:08;101374.97;;;1.63;100.00
25498;BME280;13406;53.380;7.226;2024-03-08T08:05:34;101390.16;;;2.23;100.00
25498;BME280;13406;53.380;7.226;2024-03-08T08:08:05;101344.47;;;2.00;100.00
25498;BME280;13406;53.380;7.226;2024-03-08T08:10:34;101386.38;;;2.57;100.00
25498;BME280;13406;53.380;7.226;2024-03-08T08:13:00;101383.53;;;2.69;100.00
25498;BME280;13406;53.380;7.226;2024-03-08T08:15:25;101261.09;;;2.16;100.00
25498;BME280;13406;53.380;7.226;2024-03-08T08:17:51;101421.06;;;2.84;100.00
25498;BME280;13406;53.380;7.226;2024-03-08T08:20:19;101380.00;;;2.69;100.00
25498;BME280;13406;53.380;7.226;2024-03-08T08:22:44;101465.25;;;3.14;100.00
25498;BME280;13406;53.380;7.226;2024-03-08T08:25:10;101490.66;;;3.17;100.00
25498;BME280;13406;53.380;7.226;2024-03-08T08:27:38;101497.75;;;3.16;100.00
25498;BME280;13406;53.380;7.226;2024-03-08T08:30:10;101448.31;;;2.65;100.00
25498;BME280;13406;53.380;7.226;2024-03-08T08:32:37;101504.50;;;3.30;100.00
25498;BME280;13406;53.380;7.226;2024-03-08T08:35:06;101506.34;;;3.49;100.00
25498;BME280;13406;53.380;7.226;2024-03-08T08:37:33;101516.13;;;3.49;100.00
25498;BME280;13406;53.380;7.226;2024-03-08T08:40:01;101477.16;;;3.30;100.00
25498;BME280;13406;53.380;7.226;2024-03-08T08:42:30;101520.66;;;3.87;100.00
25498;BME280;13406;53.380;7.226;2024-03-08T08:44:57;101467.28;;;3.42;100.00
25498;BME280;13406;53.380;7.226;2024-03-08T08:47:25;101439.28;;;3.18;100.00
25498;BME280;13406;53.380;7.226;2024-03-08T08:49:54;101473.16;;;3.45;100.00
25498;BME280;13406;53.380;7.226;2024-03-08T08:52:19;101544.69;;;4.05;100.00
25498;BME280;13406;53.380;7.226;2024-03-08T08:54:45;101450.94;;;3.36;100.00
25498;BME280;13406;53.380;7.226;2024-03-08T08:57:11;101451.78;;;3.76;100.00
25498;BME280;13406;53.380;7.226;2024-03-08T08:59:37;101399.16;;;3.42;100.00
25498;BME280;13406;53.380;7.226;2024-03-08T09:02:05;101466.50;;;3.99;100.00
25498;BME280;13406;53.380;7.226;2024-03-08T09:04:33;101477.34;;;3.96;100.00
25498;BME280;13406;53.380;7.226;2024-03-08T09:06:58;101462.56;;;4.03;100.00
25498;BME280;13406;53.380;7.226;2024-03-08T09:09:24;101506.00;;;4.32;100.00
25498;BME280;13406;53.380;7.226;2024-03-08T09:11:51;101528.22;;;4.40;100.00
25498;BME280;13406;53.380;7.226;2024-03-08T09:14:16;101463.81;;;4.09;100.00
25498;BME280;13406;53.380;7.226;2024-03-08T09:16:42;101494.81;;;4.28;100.00
25498;BME280;13406;53.380;7.226;2024-03-08T09:19:07;101505.44;;;4.38;100.00
25498;BME280;13406;53.380;7.226;2024-03-08T09:21:33;101407.25;;;3.89;100.00
25498;BME280;13406;53.380;7.226;2024-03-08T09:24:01;101527.34;;;4.69;100.00
25498;BME280;13406;53.380;7.226;2024-03-08T09:26:27;101468.41;;;4.26;100.00
25498;BME280;13406;53.380;7.226;2024-03-08T09:28:52;101513.53;;;4.46;100.00
25498;BME280;13406;53.380;7.226;2024-03-08T09:31:20;101522.03;;;4.69;100.00
25498;BME280;13406;53.380;7.226;2024-03-08T09:33:46;101479.09;;;4.54;100.00
25498;BME280;13406;53.380;7.226;2024-03-08T09:36:12;101356.69;;;3.91;100.00
25498;BME280;13406;53.380;7.226;2024-03-08T09:38:39;101494.56;;;4.78;100.00
25498;BME280;13406;53.380;7.226;2024-03-08T09:41:05;101394.34;;;4.23;100.00
25498;BME280;13406;53.380;7.226;2024-03-08T09:43:30;101451.13;;;4.60;100.00
25498;BME280;13406;53.380;7.226;2024-03-08T09:45:57;101479.16;;;4.82;100.00
25498;BME280;13406;53.380;7.226;2024-03-08T09:48:23;101452.06;;;4.78;100.00
25498;BME280;13406;53.380;7.226;2024-03-08T09:50:48;101384.91;;;4.39;100.00
25498;BME280;13406;53.380;7.226;2024-03-08T09:53:15;101432.63;;;4.68;100.00
25498;BME280;13406;53.380;7.226;2024-03-08T09:55:40;101506.19;;;5.42;100.00
25498;BME280;13406;53.380;7.226;2024-03-08T09:58:11;101485.41;;;5.28;100.00
25498;BME280;13406;53.380;7.226;2024-03-08T10:00:43;101505.59;;;5.48;100.00
25498;BME280;13406;53.380;7.226;2024-03-08T10:03:09;101503.34;;;5.43;100.00
25498;BME280;13406;53.380;7.226;2024-03-08T10:05:36;101438.81;;;5.24;100.00
25498;BME280;13406;53.380;7.226;2024-03-08T10:08:02;101488.28;;;5.62;100.00
25498;BME280;13406;53.380;7.226;2024-03-08T10:10:27;101505.25;;;5.79;100.00
25498;BME280;13406;53.380;7.226;2024-03-08T10:12:53;101446.44;;;5.54;100.00
25498;BME280;13406;53.380;7.226;2024-03-08T10:15:18;101464.94;;;5.74;100.00
25498;BME280;13406;53.380;7.226;2024-03-08T10:17:45;101482.03;;;5.89;100.00
25498;BME280;13406;53.380;7.226;2024-03-08T10:20:14;101497.50;;;6.21;100.00
25498;BME280;13406;53.380;7.226;2024-03-08T10:22:41;101483.09;;;6.32;100.00
25498;BME280;13406;53.380;7.226;2024-03-08T10:25:12;101497.63;;;6.38;100.00
25498;BME280;13406;53.380;7.226;2024-03-08T10:27:41;101503.03;;;6.46;100.00
25498;BME280;13406;53.380;7.226;2024-03-08T10:30:15;101509.66;;;6.42;100.00
25498;BME280;13406;53.380;7.226;2024-03-08T10:32:41;101491.47;;;6.37;100.00
25498;BME280;13406;53.380;7.226;2024-03-08T10:35:07;101505.34;;;6.67;100.00
25498;BME280;13406;53.380;7.226;2024-03-08T10:37:50;101527.34;;;6.69;100.00
25498;BME280;13406;53.380;7.226;2024-03-08T10:40:24;101515.69;;;6.70;100.00
25498;BME280;13406;53.380;7.226;2024-03-08T10:42:58;101519.28;;;6.61;100.00
25498;BME280;13406;53.380;7.226;2024-03-08T10:45:39;101614.53;;;6.94;100.00
25498;BME280;13406;53.380;7.226;2024-03-08T10:48:29;101619.06;;;7.02;100.00
25498;BME280;13406;53.380;7.226;2024-03-08T10:50:59;101590.13;;;6.63;100.00
25498;BME280;13406;53.380;7.226;2024-03-08T10:53:28;101612.84;;;6.93;100.00
25498;BME280;13406;53.380;7.226;2024-03-08T10:55:57;101624.84;;;7.15;100.00
25498;BME280;13406;53.380;7.226;2024-03-08T10:58:25;101555.69;;;6.70;100.00
25498;BME280;13406;53.380;7.226;2024-03-08T11:00:55;101611.94;;;7.11;100.00
25498;BME280;13406;53.380;7.226;2024-03-08T11:06:08;101625.91;;;7.31;100.00
25498;BME280;13406;53.380;7.226;2024-03-08T11:08:37;101541.84;;;6.92;100.00
25498;BME280;13406;53.380;7.226;2024-03-08T11:11:04;101551.31;;;7.21;100.00
25498;BME280;13406;53.380;7.226;2024-03-08T11:13:40;101622.63;;;7.71;100.00
25498;BME280;13406;53.380;7.226;2024-03-08T11:16:10;101619.22;;;7.53;100.00
25498;BME280;13406;53.380;7.226;2024-03-08T11:18:37;101631.16;;;7.83;100.00
25498;BME280;13406;53.380;7.226;2024-03-08T11:21:04;101613.00;;;7.95;100.00
25498;BME280;13406;53.380;7.226;2024-03-08T11:23:32;101606.66;;;7.87;100.00
25498;BME280;13406;53.380;7.226;2024-03-08T11:25:59;101598.00;;;7.93;100.00
25498;BME280;13406;53.380;7.226;2024-03-08T11:28:25;101612.56;;;8.07;100.00
25498;BME280;13406;53.380;7.226;2024-03-08T11:33:27;101617.78;;;8.25;100.00
25498;BME280;13406;53.380;7.226;2024-03-08T11:36:22;101611.81;;;8.40;100.00
25498;BME280;13406;53.380;7.226;2024-03-08T11:42:09;101572.31;;;8.09;100.00
25498;BME280;13406;53.380;7.226;2024-03-08T11:44:36;101570.03;;;8.47;100.00
25498;BME280;13406;53.380;7.226;2024-03-08T11:47:08;101578.34;;;8.76;100.00
25498;BME280;13406;53.380;7.226;2024-03-08T11:49:35;101527.25;;;8.38;100.00
25498;BME280;13406;53.380;7.226;2024-03-08T11:52:01;101576.34;;;8.87;100.00
25498;BME280;13406;53.380;7.226;2024-03-08T11:54:28;101481.47;;;8.25;100.00
25498;BME280;13406;53.380;7.226;2024-03-08T11:56:55;101573.00;;;9.01;100.00
25498;BME280;13406;53.380;7.226;2024-03-08T11:59:28;101561.28;;;8.94;100.00
25498;BME280;13406;53.380;7.226;2024-03-08T12:02:05;101572.78;;;9.19;100.00
25498;BME280;13406;53.380;7.226;2024-03-08T12:04:33;101518.88;;;8.74;100.00
25498;BME280;13406;53.380;7.226;2024-03-08T12:07:02;101563.47;;;8.98;100.00
25498;BME280;13406;53.380;7.226;2024-03-08T12:09:28;101509.16;;;8.81;100.00
25498;BME280;13406;53.380;7.226;2024-03-08T12:11:54;101492.81;;;8.68;100.00
25498;BME280;13406;53.380;7.226;2024-03-08T12:14:19;101517.13;;;9.06;100.00
25498;BME280;13406;53.380;7.226;2024-03-08T12:16:46;101545.72;;;9.53;100.00
25498;BME280;13406;53.380;7.226;2024-03-08T12:19:13;101546.88;;;9.50;100.00
25498;BME280;13406;53.380;7.226;2024-03-08T12:21:39;101522.00;;;9.73;100.00
25498;BME280;13406;53.380;7.226;2024-03-08T12:24:15;101512.03;;;9.59;100.00
25498;BME280;13406;53.380;7.226;2024-03-08T12:26:42;101536.34;;;9.80;100.00
25498;BME280;13406;53.380;7.226;2024-03-08T12:31:43;101522.50;;;10.23;100.00
25498;BME280;13406;53.380;7.226;2024-03-08T12:34:08;101520.63;;;10.31;100.00
25498;BME280;13406;53.380;7.226;2024-03-08T12:36:35;101495.53;;;10.24;100.00
25498;BME280;13406;53.380;7.226;2024-03-08T12:39:05;101478.56;;;10.24;100.00
25498;BME280;13406;53.380;7.226;2024-03-08T12:41:39;101457.28;;;10.30;100.00
25498;BME280;13406;53.380;7.226;2024-03-08T12:44:05;101452.69;;;10.54;100.00
25498;BME280;13406;53.380;7.226;2024-03-08T12:46:32;101508.97;;;10.92;100.00
25498;BME280;13406;53.380;7.226;2024-03-08T12:48:58;101518.78;;;11.14;100.00
25498;BME280;13406;53.380;7.226;2024-03-08T12:51:24;101519.25;;;11.18;100.00
25498;BME280;13406;53.380;7.226;2024-03-08T12:53:50;101472.88;;;11.09;100.00
25498;BME280;13406;53.380;7.226;2024-03-08T12:56:29;101515.59;;;11.55;100.00
25498;BME280;13406;53.380;7.226;2024-03-08T12:58:55;101513.25;;;11.67;100.00
25498;BME280;13406;53.380;7.226;2024-03-08T13:01:22;101485.78;;;11.71;100.00
25498;BME280;13406;53.380;7.226;2024-03-08T13:03:47;101499.84;;;11.52;100.00